Time;durP1;ratioP1;P1;durP2;ratioP2;P2;SDS_P1;SDS_P2;PMS_P1;PMS_P2;Temp;Humidity;BMP_temperature;BMP_pressure;BME280_temperature;BME280_humidity;BME280_pressure;Samples;Min_cycle;Max_cycle;Signal;HPM_P1;HPM_P2
2023/07/02 00:00:09;;;;;;;46.35;24.80;;;;;;;21.01;56.10;100708.09;5059821;28;20044;-64
2023/07/02 00:02:37;;;;;;;48.30;26.10;;;;;;;21.11;55.17;100715.81;5053522;28;20444;-61
2023/07/02 00:05:06;;;;;;;52.35;26.00;;;;;;;21.13;54.30;100717.03;5064618;28;20036;-62
2023/07/02 00:07:36;;;;;;;50.42;24.75;;;;;;;20.95;54.96;100706.81;5054163;28;20071;-62
2023/07/02 00:10:05;;;;;;;49.10;25.88;;;;;;;20.63;55.46;100706.44;5053136;28;20075;-61
2023/07/02 00:12:32;;;;;;;46.40;24.25;;;;;;;20.99;55.88;100705.69;5051531;28;20045;-62
2023/07/02 00:15:01;;;;;;;47.83;24.00;;;;;;;20.55;56.37;100712.31;5054721;28;20528;-61
2023/07/02 00:17:28;;;;;;;51.03;25.65;;;;;;;20.02;58.73;100717.16;5052046;28;20040;-61
2023/07/02 00:19:56;;;;;;;51.15;24.83;;;;;;;20.34;58.43;100706.44;5059271;28;20052;-62
2023/07/02 00:22:23;;;;;;;51.10;25.08;;;;;;;20.44;58.03;100705.78;5053961;28;20060;-61
2023/07/02 00:24:51;;;;;;;45.25;24.75;;;;;;;20.35;57.74;100697.66;5055864;28;20060;-62
2023/07/02 00:27:19;;;;;;;44.38;24.02;;;;;;;20.46;58.17;100695.81;5055000;28;20052;-63
2023/07/02 00:29:46;;;;;;;52.40;25.15;;;;;;;20.49;57.24;100691.44;5054985;28;20523;-61
2023/07/02 00:32:14;;;;;;;45.33;24.23;;;;;;;20.32;56.59;100706.81;5057038;28;20045;-61
2023/07/02 00:34:41;;;;;;;47.05;24.00;;;;;;;20.60;57.82;100715.59;5056799;28;20055;-62
2023/07/02 00:37:08;;;;;;;44.42;24.13;;;;;;;21.13;56.51;100699.44;5046641;28;20061;-62
2023/07/02 00:39:37;;;;;;;39.88;23.42;;;;;;;21.31;55.63;100694.81;5057593;28;20068;-61
2023/07/02 00:42:04;;;;;;;44.25;24.13;;;;;;;20.70;56.96;100700.09;5044751;28;20045;-62
2023/07/02 00:44:31;;;;;;;48.50;25.23;;;;;;;20.46;57.73;100707.03;5057043;28;20044;-62
2023/07/02 00:46:59;;;;;;;53.92;25.20;;;;;;;20.68;57.65;100713.69;5053606;28;20052;-61
2023/07/02 00:49:27;;;;;;;54.50;25.27;;;;;;;20.12;59.65;100708.09;5053998;28;20044;-61
2023/07/02 00:51:55;;;;;;;48.15;25.02;;;;;;;20.21;59.75;100703.06;5052827;28;20053;-62
2023/07/02 00:54:22;;;;;;;51.03;25.15;;;;;;;20.58;57.01;100703.16;5051750;28;20507;-61
2023/07/02 00:56:50;;;;;;;43.75;23.75;;;;;;;21.21;56.34;100701.94;5057660;28;20515;-62
2023/07/02 00:59:17;;;;;;;44.75;23.70;;;;;;;21.03;56.76;100700.94;5056209;28;20041;-64
2023/07/02 01:01:49;;;;;;;47.80;24.90;;;;;;;20.52;58.25;100701.91;5061119;28;20044;-61
2023/07/02 01:04:19;;;;;;;45.90;24.48;;;;;;;20.49;58.88;100700.66;5065491;28;20115;-60
2023/07/02 01:06:47;;;;;;;52.80;25.40;;;;;;;20.62;58.21;100696.44;5065857;28;20045;-61
2023/07/02 01:09:15;;;;;;;52.20;25.02;;;;;;;20.38;58.04;100710.09;5058788;28;20059;-61
2023/07/02 01:11:55;;;;;;;45.75;24.02;;;;;;;20.68;58.74;100703.28;5062868;28;20412;-61
2023/07/02 01:14:37;;;;;;;50.28;25.00;;;;;;;21.02;57.14;100710.53;5056507;28;20048;-62
2023/07/02 01:17:05;;;;;;;50.63;25.02;;;;;;;21.29;56.31;100710.41;5071487;28;20052;-62
2023/07/02 01:19:53;;;;;;;51.00;24.75;;;;;;;20.57;58.26;100718.34;5063446;28;20048;-62
2023/07/02 01:22:23;;;;;;;42.63;23.63;;;;;;;21.11;56.79;100718.63;5063127;28;20578;-62
2023/07/02 01:24:51;;;;;;;53.22;25.70;;;;;;;20.30;58.94;100727.97;5061345;28;20056;-62
2023/07/02 01:27:19;;;;;;;50.70;24.45;;;;;;;18.99;61.44;100733.28;5057646;28;20072;-61
2023/07/02 01:29:47;;;;;;;50.47;25.17;;;;;;;18.81;66.10;100732.94;5041025;28;20064;-62
2023/07/02 01:32:14;;;;;;;54.33;24.35;;;;;;;19.89;62.39;100729.75;5065138;28;20576;-62
2023/07/02 01:34:48;;;;;;;47.63;23.80;;;;;;;19.70;63.28;100733.41;5055993;28;20159;-62
2023/07/02 01:37:18;;;;;;;51.65;24.95;;;;;;;19.85;60.63;100729.69;5060768;28;20045;-62
2023/07/02 01:39:48;;;;;;;49.83;24.02;;;;;;;20.13;61.22;100723.72;5059225;28;20057;-61
2023/07/02 01:42:19;;;;;;;51.17;25.27;;;;;;;20.27;60.23;100728.72;5055891;28;20060;-61
2023/07/02 01:44:48;;;;;;;48.70;24.33;;;;;;;20.25;60.84;100722.69;5060252;28;20071;-61
2023/07/02 01:47:16;;;;;;;42.33;23.23;;;;;;;20.08;61.28;100727.63;5054117;28;20056;-61
2023/07/02 01:49:44;;;;;;;57.13;24.95;;;;;;;19.93;59.41;100725.81;5059144;28;20467;-61
2023/07/02 01:52:11;;;;;;;48.80;23.25;;;;;;;20.13;60.92;100712.53;5053807;28;20044;-61
2023/07/02 01:54:39;;;;;;;49.20;24.27;;;;;;;20.06;61.40;100723.59;5059919;28;20500;-60
2023/07/02 01:57:06;;;;;;;42.05;23.17;;;;;;;20.12;60.35;100734.09;5044461;28;20049;-61
2023/07/02 01:59:34;;;;;;;50.15;23.63;;;;;;;20.12;60.81;100727.69;5060968;28;20048;-62
2023/07/02 02:02:01;;;;;;;49.90;23.85;;;;;;;20.44;60.23;100719.75;5037180;28;20057;-61
2023/07/02 02:04:29;;;;;;;50.60;25.08;;;;;;;20.26;60.11;100721.53;5041464;28;20118;-61
2023/07/02 02:06:56;;;;;;;58.70;24.50;;;;;;;20.09;59.42;100717.25;5057495;28;20421;-61
2023/07/02 02:09:24;;;;;;;52.05;23.52;;;;;;;20.30;60.28;100717.59;5053265;28;20056;-61
2023/07/02 02:11:52;;;;;;;50.67;24.70;;;;;;;20.16;60.32;100720.19;5054159;28;20051;-60
2023/07/02 02:14:21;;;;;;;47.97;23.70;;;;;;;20.05;60.16;100710.78;5058325;28;20059;-60
2023/07/02 02:16:49;;;;;;;50.22;23.73;;;;;;;20.44;59.49;100708.56;5058772;28;20613;-61
2023/07/02 02:19:16;;;;;;;48.08;24.33;;;;;;;20.53;59.64;100721.09;5052635;28;20143;-61
2023/07/02 02:21:47;;;;;;;41.67;22.67;;;;;;;20.81;58.77;100720.66;5061808;28;20053;-60
2023/07/02 02:24:14;;;;;;;45.85;22.95;;;;;;;20.20;60.68;100734.22;5059655;28;20079;-62
2023/07/02 02:26:42;;;;;;;49.10;23.13;;;;;;;20.35;59.02;100730.44;5060654;28;20045;-62
2023/07/02 02:29:09;;;;;;;47.25;23.48;;;;;;;19.73;61.76;100723.47;5057312;28;20051;-61
2023/07/02 02:31:37;;;;;;;40.97;23.00;;;;;;;20.31;60.77;100733.19;5022397;28;20063;-61
2023/07/02 02:34:05;;;;;;;46.10;23.05;;;;;;;20.39;59.21;100729.31;5053674;28;20060;-62
2023/07/02 02:36:34;;;;;;;46.17;22.85;;;;;;;20.33;60.74;100727.22;5051186;28;20051;-61
2023/07/02 02:39:01;;;;;;;58.03;23.45;;;;;;;20.47;58.94;100728.22;5041176;28;20045;-61
2023/07/02 02:41:30;;;;;;;42.95;22.35;;;;;;;20.22;60.62;100735.47;5052213;28;20049;-61
2023/07/02 02:43:57;;;;;;;45.55;22.80;;;;;;;20.69;59.63;100732.09;5062791;28;20040;-62
2023/07/02 02:46:25;;;;;;;46.17;22.48;;;;;;;20.01;61.79;100735.91;5052760;28;20048;-61
2023/07/02 02:48:53;;;;;;;53.08;23.55;;;;;;;19.81;61.83;100740.00;5054204;28;20056;-62
2023/07/02 02:51:20;;;;;;;44.15;22.25;;;;;;;19.90;62.60;100742.53;5050965;28;20057;-61
2023/07/02 02:53:48;;;;;;;49.08;22.73;;;;;;;20.17;61.31;100732.19;5055108;28;20059;-62
2023/07/02 02:56:16;;;;;;;45.47;22.08;;;;;;;20.17;61.30;100744.97;5054941;28;20044;-61
2023/07/02 02:58:43;;;;;;;49.92;22.40;;;;;;;19.92;61.83;100749.38;5062243;28;20519;-61
2023/07/02 03:01:11;;;;;;;45.20;21.42;;;;;;;20.07;61.31;100745.59;5051255;28;20373;-63
2023/07/02 03:03:45;;;;;;;45.88;22.35;;;;;;;20.47;60.00;100733.81;5059305;28;20079;-61
2023/07/02 03:06:16;;;;;;;51.10;21.15;;;;;;;20.07;60.65;100739.19;5056867;28;20041;-61
2023/07/02 03:08:43;;;;;;;46.65;22.25;;;;;;;19.92;60.59;100745.75;5063467;28;20075;-61
2023/07/02 03:11:11;;;;;;;45.83;23.13;;;;;;;19.78;62.35;100728.75;5056169;28;20045;-61
2023/07/02 03:13:38;;;;;;;48.10;21.52;;;;;;;20.13;61.43;100740.50;5061426;28;20416;-60
2023/07/02 03:16:06;;;;;;;46.60;22.15;;;;;;;20.54;60.14;100744.31;5053813;28;20432;-60
2023/07/02 03:18:35;;;;;;;45.28;22.05;;;;;;;20.36;59.96;100735.66;5044251;28;20056;-61
2023/07/02 03:21:04;;;;;;;47.20;21.27;;;;;;;20.76;59.28;100740.59;5054875;28;20059;-62
2023/07/02 03:23:31;;;;;;;55.83;22.08;;;;;;;20.72;59.01;100739.72;5056442;28;20060;-62
2023/07/02 03:25:59;;;;;;;45.33;22.13;;;;;;;20.43;59.81;100740.56;5057389;28;20049;-61
2023/07/02 03:28:26;;;;;;;46.22;22.27;;;;;;;19.94;60.68;100744.22;5053038;28;20048;-61
2023/07/02 03:30:53;;;;;;;48.10;21.23;;;;;;;19.66;62.56;100749.34;5054587;28;20045;-62
2023/07/02 03:33:21;;;;;;;43.70;21.55;;;;;;;19.64;63.59;100748.91;5060934;28;20076;-62
2023/07/02 03:35:48;;;;;;;47.58;20.33;;;;;;;19.42;62.50;100743.31;5060694;28;20052;-61
2023/07/02 03:38:16;;;;;;;43.97;21.00;;;;;;;20.06;62.47;100749.59;5058617;28;20044;-62
2023/07/02 03:40:43;;;;;;;42.72;19.98;;;;;;;19.48;62.47;100764.97;5062671;28;20660;-63
2023/07/02 03:43:11;;;;;;;43.13;19.88;;;;;;;19.53;63.79;100770.25;5052412;28;20049;-61
2023/07/02 03:45:39;;;;;;;48.95;21.05;;;;;;;19.43;63.20;100770.88;5059765;28;20049;-62
2023/07/02 03:48:06;;;;;;;47.33;21.25;;;;;;;19.86;62.42;100773.22;5051861;28;20061;-62
2023/07/02 03:50:33;;;;;;;45.42;20.27;;;;;;;19.75;63.07;100780.59;5055951;28;20049;-61
2023/07/02 03:53:01;;;;;;;41.33;19.27;;;;;;;20.22;61.64;100780.22;5057396;28;20045;-63
2023/07/02 03:55:28;;;;;;;42.08;20.08;;;;;;;19.99;62.08;100779.41;5051572;28;20053;-61
2023/07/02 03:57:56;;;;;;;45.72;19.33;;;;;;;20.37;60.20;100782.03;5052705;28;20048;-61
2023/07/02 04:00:23;;;;;;;41.10;20.15;;;;;;;20.51;60.48;100796.25;5056475;28;20044;-61
2023/07/02 04:02:51;;;;;;;40.53;19.75;;;;;;;20.63;60.03;100778.41;5067480;28;20048;-62
2023/07/02 04:05:20;;;;;;;43.97;20.52;;;;;;;20.36;60.52;100785.22;5057124;28;20682;-62
2023/07/02 04:07:47;;;;;;;46.10;20.10;;;;;;;20.71;59.50;100774.53;5056032;28;20528;-63
2023/07/02 04:10:14;;;;;;;45.90;20.00;;;;;;;20.83;59.00;100772.28;5056316;28;20045;-61
2023/07/02 04:12:41;;;;;;;41.72;19.70;;;;;;;20.75;58.62;100778.97;5044552;28;20056;-62
2023/07/02 04:15:09;;;;;;;42.92;20.15;;;;;;;20.72;59.11;100790.13;5063958;28;20049;-62
2023/07/02 04:17:37;;;;;;;43.65;19.42;;;;;;;20.09;60.71;100796.38;5057410;28;20100;-62
2023/07/02 04:20:06;;;;;;;41.33;19.05;;;;;;;19.93;62.74;100794.88;5056249;28;20049;-62
2023/07/02 04:22:33;;;;;;;40.75;19.92;;;;;;;20.04;61.57;100793.09;5049292;28;20051;-63
2023/07/02 04:25:01;;;;;;;43.10;19.52;;;;;;;19.93;61.17;100789.28;5055357;28;20063;-62
2023/07/02 04:27:42;;;;;;;43.30;19.52;;;;;;;19.59;63.63;100795.91;5063410;28;20080;-62
2023/07/02 04:30:17;;;;;;;44.65;19.35;;;;;;;19.87;62.93;100805.59;5057627;28;20041;-62
2023/07/02 04:32:44;;;;;;;45.60;19.70;;;;;;;20.00;61.78;100797.81;5054600;28;20677;-60
2023/07/02 04:35:12;;;;;;;42.72;18.70;;;;;;;19.81;63.31;100801.50;5056270;28;20041;-61
2023/07/02 04:37:39;;;;;;;44.22;19.05;;;;;;;19.81;63.20;100812.66;5057654;28;20057;-61
2023/07/02 04:40:10;;;;;;;48.78;19.02;;;;;;;19.98;62.25;100800.97;5054290;28;20057;-62
2023/07/02 04:42:39;;;;;;;47.78;18.88;;;;;;;20.33;61.21;100803.56;5070197;28;20064;-61
2023/07/02 04:45:08;;;;;;;44.20;18.27;;;;;;;20.38;60.07;100806.03;5064475;28;20059;-61
2023/07/02 04:47:35;;;;;;;46.23;19.00;;;;;;;19.58;63.51;100806.25;5062758;28;20044;-63
2023/07/02 04:50:05;;;;;;;36.17;18.05;;;;;;;20.10;62.50;100808.38;5064004;28;20056;-61
2023/07/02 04:52:33;;;;;;;44.92;19.13;;;;;;;20.60;60.42;100810.75;5062130;28;20052;-61
2023/07/02 04:55:02;;;;;;;47.17;19.17;;;;;;;20.62;59.83;100808.41;5057362;28;20053;-62
2023/07/02 04:57:30;;;;;;;47.92;19.17;;;;;;;19.77;62.31;100809.00;5055317;28;20052;-61
2023/07/02 04:59:57;;;;;;;45.50;18.42;;;;;;;19.82;62.71;100805.88;5060016;28;20409;-61
2023/07/02 05:02:24;;;;;;;42.63;18.17;;;;;;;19.40;64.23;100807.94;5062680;28;20047;-62
2023/07/02 05:04:52;;;;;;;50.78;18.60;;;;;;;19.98;62.53;100808.56;5058569;28;20048;-62
2023/07/02 05:07:19;;;;;;;42.92;17.73;;;;;;;20.33;61.26;100805.56;5053345;28;20052;-61
2023/07/02 05:09:48;;;;;;;44.78;18.25;;;;;;;20.46;60.61;100804.97;5053318;28;20057;-62
2023/07/02 05:12:15;;;;;;;36.10;17.40;;;;;;;19.82;63.20;100803.09;5056431;28;20053;-62
2023/07/02 05:14:43;;;;;;;43.88;18.42;;;;;;;19.78;62.90;100813.44;5066071;28;20052;-62
2023/07/02 05:17:10;;;;;;;44.17;17.60;;;;;;;19.81;62.20;100807.09;5054754;28;20049;-61
2023/07/02 05:19:38;;;;;;;36.28;17.40;;;;;;;19.32;64.35;100806.16;5054868;28;20060;-64
2023/07/02 05:22:05;;;;;;;39.33;17.02;;;;;;;20.01;63.17;100805.81;5062008;28;20052;-61
2023/07/02 05:24:32;;;;;;;44.60;17.67;;;;;;;19.74;62.74;100812.53;5053953;28;20475;-61
2023/07/02 05:26:59;;;;;;;41.72;17.33;;;;;;;20.35;61.87;100811.56;5054550;28;20052;-62
2023/07/02 05:29:27;;;;;;;44.13;18.13;;;;;;;20.84;59.79;100803.88;5068011;28;20106;-62
2023/07/02 05:31:54;;;;;;;36.53;16.70;;;;;;;20.66;59.96;100808.44;5059956;28;20087;-62
2023/07/02 05:34:22;;;;;;;36.35;16.63;;;;;;;20.17;61.44;100812.09;5064085;28;20053;-62
2023/07/02 05:36:49;;;;;;;38.90;16.25;;;;;;;20.41;61.54;100821.25;5059317;28;20047;-62
2023/07/02 05:39:16;;;;;;;36.42;16.42;;;;;;;20.35;61.18;100828.34;5065195;28;20477;-61
2023/07/02 05:41:44;;;;;;;43.80;18.25;;;;;;;20.81;59.56;100827.84;5052523;28;20618;-62
2023/07/02 05:44:11;;;;;;;41.67;17.15;;;;;;;20.84;59.03;100821.50;5055128;28;20423;-61
2023/07/02 05:46:39;;;;;;;41.78;17.02;;;;;;;20.14;61.45;100829.63;5058947;28;20059;-61
2023/07/02 05:49:07;;;;;;;42.00;17.10;;;;;;;20.02;61.12;100829.81;5065356;28;20682;-61
2023/07/02 05:51:34;;;;;;;44.65;17.38;;;;;;;19.80;62.33;100836.22;5038231;28;20101;-62
2023/07/02 05:54:01;;;;;;;41.03;18.23;;;;;;;20.44;61.74;100837.28;5062350;28;20045;-61
2023/07/02 05:56:28;;;;;;;38.40;17.45;;;;;;;20.23;62.01;100834.97;5057021;28;20073;-61
2023/07/02 05:58:56;;;;;;;39.88;17.02;;;;;;;20.04;62.25;100843.41;5057852;28;20064;-62
2023/07/02 06:01:23;;;;;;;40.20;16.67;;;;;;;19.90;62.53;100838.41;5063506;28;20040;-61
2023/07/02 06:03:51;;;;;;;37.30;16.70;;;;;;;20.24;61.98;100839.41;5062028;28;20048;-61
2023/07/02 06:06:18;;;;;;;41.55;17.83;;;;;;;20.26;60.99;100842.59;5064342;28;20561;-62
2023/07/02 06:08:45;;;;;;;44.67;16.80;;;;;;;20.32;61.18;100843.91;5060134;28;20036;-61
2023/07/02 06:11:13;;;;;;;35.55;17.00;;;;;;;20.16;62.58;100843.25;5056294;28;20064;-62
2023/07/02 06:13:40;;;;;;;42.28;17.95;;;;;;;19.79;62.95;100853.34;5064337;28;20060;-61
2023/07/02 06:16:08;;;;;;;34.58;16.85;;;;;;;20.47;62.23;100844.94;5057178;28;20512;-62
2023/07/02 06:18:35;;;;;;;42.95;17.73;;;;;;;19.68;62.85;100850.34;5058932;28;20036;-61
2023/07/02 06:21:03;;;;;;;42.67;17.77;;;;;;;19.88;63.89;100851.94;5054043;28;20053;-62
2023/07/02 06:23:40;;;;;;;44.03;16.67;;;;;;;19.66;63.56;100852.75;5057297;28;20471;-61
2023/07/02 06:26:07;;;;;;;38.20;16.50;;;;;;;20.46;62.23;100852.53;5061675;28;20047;-61
2023/07/02 06:28:34;;;;;;;42.53;18.13;;;;;;;20.63;60.39;100859.56;5064667;28;20051;-61
2023/07/02 06:31:02;;;;;;;37.92;16.83;;;;;;;20.91;60.12;100862.78;5051888;28;20090;-62
2023/07/02 06:33:30;;;;;;;38.83;17.02;;;;;;;21.54;58.10;100858.00;5055039;28;20052;-61
2023/07/02 06:35:57;;;;;;;39.65;16.60;;;;;;;21.15;59.03;100865.13;5056629;28;20508;-61
2023/07/02 06:38:24;;;;;;;35.47;16.75;;;;;;;20.90;59.32;100864.75;5055193;28;20045;-61
2023/07/02 06:40:52;;;;;;;37.28;17.33;;;;;;;20.74;60.25;100863.34;5040869;28;20078;-64
2023/07/02 06:43:19;;;;;;;42.22;17.10;;;;;;;20.09;61.91;100869.09;5049449;28;20067;-62
2023/07/02 06:45:47;;;;;;;38.08;17.58;;;;;;;20.72;60.42;100866.53;5064093;28;20060;-62
2023/07/02 06:48:17;;;;;;;41.33;17.20;;;;;;;20.70;60.49;100866.09;5061535;28;20045;-62
2023/07/02 06:50:45;;;;;;;39.88;16.77;;;;;;;20.97;60.04;100876.06;5059199;28;20120;-62
2023/07/02 06:53:14;;;;;;;41.47;17.42;;;;;;;21.39;58.16;100875.84;5064653;28;20038;-62
2023/07/02 06:55:41;;;;;;;34.78;16.95;;;;;;;21.48;58.15;100872.75;5053349;28;20536;-62
2023/07/02 06:58:09;;;;;;;36.08;16.90;;;;;;;21.72;56.77;100873.03;5054345;28;20052;-61
2023/07/02 07:00:38;;;;;;;37.97;17.33;;;;;;;21.47;57.35;100880.34;5062604;28;20048;-61
2023/07/02 07:03:05;;;;;;;34.50;16.38;;;;;;;21.82;57.26;100875.16;5051806;28;20052;-61
2023/07/02 07:05:32;;;;;;;39.88;17.42;;;;;;;21.97;56.58;100885.31;5056183;28;20049;-62
2023/07/02 07:08:03;;;;;;;45.40;17.70;;;;;;;21.34;57.04;100883.78;5060523;28;20138;-61
2023/07/02 07:10:34;;;;;;;42.05;16.55;;;;;;;20.98;59.82;100883.31;5068231;28;20045;-62
2023/07/02 07:13:02;;;;;;;37.72;16.85;;;;;;;21.29;58.46;100870.91;5058441;28;20087;-62
2023/07/02 07:15:32;;;;;;;39.88;16.67;;;;;;;21.44;58.90;100881.13;5061522;28;20527;-62
2023/07/02 07:17:59;;;;;;;36.10;15.98;;;;;;;21.68;58.14;100882.56;5053347;28;20052;-62
2023/07/02 07:20:27;;;;;;;40.38;17.02;;;;;;;21.09;58.78;100877.88;5054779;28;20053;-62
2023/07/02 07:22:54;;;;;;;37.08;16.88;;;;;;;20.94;59.93;100884.41;5059792;28;20052;-65
2023/07/02 07:25:22;;;;;;;36.10;16.30;;;;;;;20.69;59.60;100891.66;5061247;28;20048;-62
2023/07/02 07:27:49;;;;;;;37.38;17.25;;;;;;;21.10;60.37;100896.28;5059810;28;20059;-61
2023/07/02 07:30:22;;;;;;;34.05;16.13;;;;;;;21.49;58.50;100888.34;5047040;28;20041;-63
2023/07/02 07:32:50;;;;;;;33.22;16.15;;;;;;;21.80;57.78;100876.72;5057729;28;20049;-62
2023/07/02 07:35:19;;;;;;;34.53;15.77;;;;;;;22.03;56.67;100880.97;5059999;28;20558;-62
2023/07/02 07:37:47;;;;;;;35.00;16.20;;;;;;;21.96;56.78;100878.09;5060202;28;20048;-63
2023/07/02 07:40:15;;;;;;;39.90;16.45;;;;;;;22.25;55.39;100879.97;5063988;28;20067;-65
2023/07/02 07:42:42;;;;;;;34.75;16.50;;;;;;;22.47;54.65;100880.13;5059246;28;20053;-63
2023/07/02 07:45:11;;;;;;;36.00;16.77;;;;;;;22.26;55.27;100877.97;5059423;28;20408;-62
2023/07/02 07:47:39;;;;;;;39.72;17.23;;;;;;;22.34;54.67;100880.44;5062182;28;20052;-62
2023/07/02 07:50:10;;;;;;;34.05;16.27;;;;;;;22.61;54.30;100883.88;5057887;28;20033;-62
2023/07/02 07:52:42;;;;;;;39.08;16.35;;;;;;;22.84;53.74;100878.81;5057552;28;20067;-62
2023/07/02 07:55:09;;;;;;;33.20;16.75;;;;;;;22.08;55.12;100891.03;5056432;28;20059;-61
2023/07/02 07:57:37;;;;;;;41.05;18.33;;;;;;;22.13;54.17;100891.47;5050913;28;20048;-61
2023/07/02 08:00:07;;;;;;;36.38;16.60;;;;;;;21.39;57.20;100892.66;5055865;28;20037;-61
2023/07/02 08:02:46;;;;;;;37.42;17.35;;;;;;;21.63;56.88;100888.53;5057069;28;20447;-60
2023/07/02 08:05:14;;;;;;;37.13;16.98;;;;;;;22.02;58.21;100898.97;5061099;28;20044;-60
2023/07/02 08:07:41;;;;;;;33.08;16.10;;;;;;;22.66;56.16;100891.94;5049091;28;20060;-60
2023/07/02 08:10:09;;;;;;;37.88;16.63;;;;;;;22.70;56.34;100898.38;5056709;28;20049;-60
2023/07/02 08:12:37;;;;;;;41.97;16.83;;;;;;;22.45;53.71;100897.38;5053448;28;20055;-60
2023/07/02 08:15:05;;;;;;;40.97;16.98;;;;;;;21.94;54.95;100902.91;5056623;28;20052;-61
2023/07/02 08:17:32;;;;;;;37.13;16.55;;;;;;;21.44;55.96;100895.13;5062566;28;20037;-59
2023/07/02 08:20:00;;;;;;;39.63;16.25;;;;;;;21.07;57.32;100902.63;5062085;28;20040;-60
2023/07/02 08:22:27;;;;;;;32.28;16.48;;;;;;;20.57;59.28;100911.47;5063751;28;20048;-61
2023/07/02 08:24:55;;;;;;;35.35;16.33;;;;;;;20.79;58.49;100907.81;5061078;28;20048;-62
2023/07/02 08:27:23;;;;;;;34.08;16.15;;;;;;;21.29;56.75;100914.94;5052633;28;20065;-62
2023/07/02 08:29:50;;;;;;;35.90;16.05;;;;;;;21.35;56.21;100905.00;5063539;28;20052;-61
2023/07/02 08:32:17;;;;;;;34.63;15.68;;;;;;;20.94;56.84;100915.22;5059092;28;20051;-60
2023/07/02 08:34:45;;;;;;;40.67;16.52;;;;;;;20.87;56.94;100913.13;5060771;28;20056;-61
2023/07/02 08:37:12;;;;;;;36.33;16.17;;;;;;;20.93;57.71;100910.81;5063362;28;20053;-60
2023/07/02 08:39:40;;;;;;;37.00;15.65;;;;;;;20.96;57.40;100910.03;5053057;28;20048;-61
2023/07/02 08:42:08;;;;;;;33.05;16.15;;;;;;;21.33;55.89;100916.59;5064011;28;20052;-60
2023/07/02 08:44:35;;;;;;;37.83;16.67;;;;;;;21.04;56.48;100921.00;5072845;28;20044;-60
2023/07/02 08:47:03;;;;;;;44.80;15.98;;;;;;;21.28;56.69;100925.34;5053661;28;20411;-60
2023/07/02 08:49:31;;;;;;;37.25;15.50;;;;;;;22.03;54.61;100917.44;5066211;28;20045;-58
2023/07/02 08:51:58;;;;;;;39.53;16.42;;;;;;;22.50;53.27;100919.47;5063376;28;20052;-59
2023/07/02 08:54:26;;;;;;;35.50;15.60;;;;;;;22.72;52.18;100910.03;5068939;28;20678;-60
2023/07/02 08:56:53;;;;;;;38.22;16.20;;;;;;;21.89;53.11;100916.47;5066239;28;20508;-58
2023/07/02 08:59:21;;;;;;;36.28;16.02;;;;;;;22.32;53.59;100904.47;5061582;28;20044;-59
2023/07/02 09:01:50;;;;;;;33.03;14.98;;;;;;;22.27;52.07;100911.25;5062269;28;20063;-60
2023/07/02 09:04:23;;;;;;;41.13;15.97;;;;;;;21.22;53.63;100913.66;5067094;28;20515;-58
2023/07/02 09:07:07;;;;;;;39.65;15.50;;;;;;;21.10;54.89;100916.69;5059251;28;20306;-60
2023/07/02 09:09:50;;;;;;;36.35;16.05;;;;;;;21.68;52.67;100900.22;5059285;28;20459;-61
2023/07/02 09:12:32;;;;;;;34.17;14.65;;;;;;;21.75;53.42;100897.47;5063062;28;20055;-59
2023/07/02 09:15:06;;;;;;;36.78;15.15;;;;;;;21.87;52.08;100904.84;5062827;28;20049;-61
2023/07/02 09:17:35;;;;;;;34.45;15.15;;;;;;;21.70;52.08;100894.22;5065285;28;20475;-60
2023/07/02 09:20:10;;;;;;;31.48;14.18;;;;;;;21.20;51.72;100896.41;5058963;28;20045;-60
2023/07/02 09:22:38;;;;;;;33.03;14.30;;;;;;;20.64;52.20;100908.78;5067692;28;20467;-60
2023/07/02 09:25:06;;;;;;;32.42;13.25;;;;;;;20.79;52.16;100905.00;5063082;28;20056;-60
2023/07/02 09:27:35;;;;;;;32.92;13.93;;;;;;;20.82;51.98;100907.84;5060982;28;20052;-60
2023/07/02 09:30:08;;;;;;;37.33;15.50;;;;;;;21.35;52.51;100900.22;5059579;28;20037;-60
2023/07/02 09:32:35;;;;;;;31.58;14.43;;;;;;;21.39;53.06;100901.06;5061561;28;20053;-62
2023/07/02 09:35:04;;;;;;;40.17;14.63;;;;;;;21.15;52.09;100898.75;5063322;28;20048;-60
2023/07/02 09:37:32;;;;;;;36.22;14.40;;;;;;;21.49;51.88;100893.97;5060627;28;20051;-62
2023/07/02 09:40:00;;;;;;;33.72;14.23;;;;;;;22.21;53.46;100898.75;5063471;28;20182;-63
2023/07/02 09:42:28;;;;;;;30.15;14.25;;;;;;;22.54;52.61;100892.25;5053733;28;20052;-62
2023/07/02 09:44:58;;;;;;;36.05;14.77;;;;;;;22.94;50.58;100894.94;5063052;28;20037;-62
2023/07/02 09:47:27;;;;;;;29.98;13.80;;;;;;;23.41;50.45;100888.38;5059953;28;20048;-62
2023/07/02 09:49:58;;;;;;;37.67;18.10;;;;;;;23.73;50.24;100885.66;5052327;28;20048;-62
2023/07/02 09:52:27;;;;;;;31.80;15.20;;;;;;;23.91;49.33;100892.91;5068272;28;20052;-63
2023/07/02 09:54:54;;;;;;;28.90;14.23;;;;;;;23.69;48.25;100891.28;5057320;28;20048;-63
2023/07/02 09:57:22;;;;;;;34.28;14.75;;;;;;;23.82;49.13;100895.31;5056725;28;20080;-63
2023/07/02 09:59:50;;;;;;;30.67;14.80;;;;;;;23.36;49.26;100888.75;5068455;28;20048;-63
2023/07/02 10:02:17;;;;;;;30.70;13.57;;;;;;;23.55;48.92;100885.59;5058473;28;20646;-64
2023/07/02 10:04:46;;;;;;;28.15;13.30;;;;;;;23.65;44.99;100881.19;5054897;28;20404;-62
2023/07/02 10:07:26;;;;;;;26.67;12.63;;;;;;;23.30;45.68;100881.88;5067021;28;20682;-62
2023/07/02 10:09:54;;;;;;;34.63;13.88;;;;;;;22.75;45.34;100881.16;5056815;28;20045;-61
2023/07/02 10:12:23;;;;;;;28.75;13.25;;;;;;;22.77;44.75;100886.41;5058420;28;20048;-61
2023/07/02 10:14:52;;;;;;;31.40;13.80;;;;;;;22.62;45.47;100891.09;5062566;28;21787;-61
2023/07/02 10:17:30;;;;;;;31.33;13.35;;;;;;;22.09;46.44;100889.81;5053537;28;20052;-61
2023/07/02 10:20:07;;;;;;;29.98;13.00;;;;;;;21.20;47.41;100893.59;5055129;28;20081;-62
2023/07/02 10:22:52;;;;;;;30.00;14.40;;;;;;;21.67;51.76;100890.16;5060532;28;20415;-62
2023/07/02 10:25:31;;;;;;;29.20;13.68;;;;;;;21.92;52.36;100891.28;5065240;28;20495;-61
2023/07/02 10:27:59;;;;;;;29.92;13.50;;;;;;;21.82;47.49;100885.56;5068748;28;20071;-63
2023/07/02 10:30:37;;;;;;;27.60;13.63;;;;;;;22.45;47.51;100879.72;5059886;28;20060;-63
2023/07/02 10:33:14;;;;;;;26.60;12.20;;;;;;;22.00;46.59;100884.53;5056632;28;20052;-62
2023/07/02 10:35:49;;;;;;;30.08;13.10;;;;;;;22.28;47.82;100879.16;5059673;28;20055;-61
2023/07/02 10:38:23;;;;;;;25.67;12.60;;;;;;;23.07;47.51;100884.16;5056993;28;20043;-61
2023/07/02 10:40:58;;;;;;;27.13;12.85;;;;;;;23.45;47.38;100877.13;5067855;28;20048;-62
2023/07/02 10:43:32;;;;;;;30.75;13.77;;;;;;;23.48;45.68;100881.94;5059129;28;20044;-62
2023/07/02 10:46:00;;;;;;;28.30;12.77;;;;;;;22.64;46.42;100885.91;5063564;28;20049;-61
2023/07/02 10:48:29;;;;;;;31.67;12.60;;;;;;;23.04;45.21;100876.50;5055204;28;20402;-62
2023/07/02 10:50:57;;;;;;;28.70;12.25;;;;;;;23.57;44.48;100865.53;5059478;28;20045;-62
2023/07/02 10:53:24;;;;;;;26.15;12.30;;;;;;;23.50;44.22;100860.69;5066816;28;20048;-61
2023/07/02 10:55:56;;;;;;;30.30;12.45;;;;;;;23.83;43.35;100868.00;5061951;28;20053;-62
2023/07/02 10:58:25;;;;;;;24.25;12.60;;;;;;;24.04;43.24;100863.19;5053320;28;20061;-63
2023/07/02 11:00:53;;;;;;;24.35;12.52;;;;;;;24.30;42.52;100862.81;5051271;28;20049;-62
2023/07/02 11:03:23;;;;;;;25.38;12.90;;;;;;;24.14;43.04;100856.81;5063368;28;20051;-63
2023/07/02 11:05:51;;;;;;;23.42;12.05;;;;;;;23.90;40.02;100865.97;5060717;28;20056;-62
2023/07/02 11:08:21;;;;;;;24.85;12.32;;;;;;;23.74;42.10;100853.50;5064663;28;20067;-63
2023/07/02 11:10:49;;;;;;;25.23;11.87;;;;;;;23.28;41.00;100868.22;5056314;28;20049;-63
2023/07/02 11:13:18;;;;;;;20.58;11.55;;;;;;;23.25;43.76;100856.94;5057350;28;20508;-62
2023/07/02 11:15:46;;;;;;;31.20;12.23;;;;;;;23.80;42.39;100861.13;5066324;28;20051;-63